Alcolu, South Carolina
Current Conditions -  °F | °C
As of 7:15 PM on Tuesday 25 Nov 2014 (Local Time) from KSMS Reporting Station
Drizzle Drizzle  
Wind Chill: 16°   Ceiling: 300
Heat Index: 16°   Visibility: 1mi
Dew Point: 16°   Wind: 0mph
Humidity: 100%   Direction: NA
Pressure: 30.04"   Gusts: NA
Location:  33.75°N, 80.21°W
Report Text: KSMS 260015Z AUTO 00000KT 1SM -DZ OVC003 16/16 A3004 RMK AO2
Loading
Personal Weather Stations






























Interactive Weather Map New forecast layout! Learn more

10-Day Weather Forecast

Advertisements
Track Severe Weather on mobile